Time;durP1;ratioP1;P1;durP2;ratioP2;P2;SDS_P1;SDS_P2;PMS_P1;PMS_P2;Temp;Humidity;BMP_temperature;BMP_pressure;BME280_temperature;BME280_humidity;BME280_pressure;Samples;Min_cycle;Max_cycle;Signal;HPM_P1;HPM_P2
2022/03/19 00:00:45;;;;;;;49.17;22.80;;;;;;;;;;7386435;19;20066;-78
2022/03/19 00:03:10;;;;;;;42.50;21.75;;;;;;;;;;7396761;19;20048;-78
2022/03/19 00:05:36;;;;;;;50.78;23.13;;;;;;;;;;7395571;19;20457;-78
2022/03/19 00:08:02;;;;;;;45.88;24.30;;;;;;;;;;7395589;19;20031;-76
2022/03/19 00:10:27;;;;;;;47.80;23.55;;;;;;;;;;7394708;19;20019;-79
2022/03/19 00:12:53;;;;;;;42.33;22.30;;;;;;;;;;7394007;19;20006;-78
2022/03/19 00:15:19;;;;;;;46.80;22.70;;;;;;;;;;7392522;19;20010;-78
2022/03/19 00:17:44;;;;;;;45.20;22.17;;;;;;;;;;7392451;19;20011;-78
2022/03/19 00:20:10;;;;;;;42.60;21.77;;;;;;;;;;7392291;19;20766;-79
2022/03/19 00:22:37;;;;;;;44.22;22.30;;;;;;;;;;7395121;19;20386;-78
2022/03/19 00:25:03;;;;;;;41.72;21.10;;;;;;;;;;7395977;19;19999;-79
2022/03/19 00:27:28;;;;;;;44.78;22.58;;;;;;;;;;7394095;19;20117;-79
2022/03/19 00:29:53;;;;;;;44.42;20.98;;;;;;;;;;7390926;19;20813;-79
2022/03/19 00:32:19;;;;;;;42.10;21.23;;;;;;;;;;7397167;19;20003;-78
2022/03/19 00:34:44;;;;;;;45.22;22.10;;;;;;;;;;7390679;19;20135;-78
2022/03/19 00:37:10;;;;;;;41.55;20.35;;;;;;;;;;7396632;19;20078;-78
2022/03/19 00:39:35;;;;;;;42.58;20.58;;;;;;;;;;7393237;19;20078;-78
2022/03/19 00:42:00;;;;;;;48.22;21.90;;;;;;;;;;7393546;19;20006;-78
2022/03/19 00:44:25;;;;;;;39.72;20.33;;;;;;;;;;7398282;19;20015;-78
2022/03/19 00:46:51;;;;;;;39.25;19.05;;;;;;;;;;7393068;19;20010;-78
2022/03/19 00:49:17;;;;;;;47.83;22.60;;;;;;;;;;7390189;19;20384;-78
2022/03/19 00:51:42;;;;;;;44.63;20.77;;;;;;;;;;7394044;19;20010;-78
2022/03/19 00:54:09;;;;;;;42.72;22.08;;;;;;;;;;7393653;19;20010;-78
2022/03/19 00:56:34;;;;;;;40.03;21.98;;;;;;;;;;7395969;19;20016;-78
2022/03/19 00:59:00;;;;;;;42.45;19.75;;;;;;;;;;7394685;19;20043;-78
2022/03/19 01:01:26;;;;;;;36.15;18.23;;;;;;;;;;7391582;19;20010;-78
2022/03/19 01:03:51;;;;;;;39.00;19.38;;;;;;;;;;7395439;19;20014;-78
2022/03/19 01:06:17;;;;;;;41.53;19.75;;;;;;;;;;7393313;19;20022;-78
2022/03/19 01:08:42;;;;;;;37.55;20.15;;;;;;;;;;7390678;19;20423;-78
2022/03/19 01:11:07;;;;;;;41.83;20.15;;;;;;;;;;7397196;19;20002;-78
2022/03/19 01:13:33;;;;;;;36.95;17.75;;;;;;;;;;7417423;19;20022;-79
2022/03/19 01:15:58;;;;;;;36.75;18.83;;;;;;;;;;7425543;19;19999;-78
2022/03/19 01:18:24;;;;;;;41.20;19.55;;;;;;;;;;7422327;19;20030;-78
2022/03/19 01:20:49;;;;;;;31.63;15.98;;;;;;;;;;7422033;19;20010;-78
2022/03/19 01:23:14;;;;;;;40.60;19.88;;;;;;;;;;7417650;19;20029;-78
2022/03/19 01:25:40;;;;;;;31.65;16.75;;;;;;;;;;7398711;19;20599;-78
2022/03/19 01:28:06;;;;;;;38.38;18.55;;;;;;;;;;7396812;19;20006;-78
2022/03/19 01:30:31;;;;;;;37.95;19.02;;;;;;;;;;7400086;19;19998;-78
2022/03/19 01:32:56;;;;;;;39.17;19.02;;;;;;;;;;7394451;19;20422;-78
2022/03/19 01:35:22;;;;;;;40.20;18.63;;;;;;;;;;7398250;19;20035;-78
2022/03/19 01:37:49;;;;;;;34.53;17.55;;;;;;;;;;7396634;19;20018;-79
2022/03/19 01:40:17;;;;;;;34.85;17.42;;;;;;;;;;7400039;19;20496;-78
2022/03/19 01:42:48;;;;;;;37.80;18.23;;;;;;;;;;7400677;19;20006;-78
2022/03/19 01:45:19;;;;;;;37.80;18.63;;;;;;;;;;7397395;19;20094;-78
2022/03/19 01:47:44;;;;;;;33.97;17.38;;;;;;;;;;7397116;19;20018;-78
2022/03/19 01:50:11;;;;;;;32.83;17.25;;;;;;;;;;7399061;19;20039;-78
2022/03/19 01:52:37;;;;;;;33.28;16.60;;;;;;;;;;7401622;19;20021;-78
2022/03/19 01:55:04;;;;;;;32.35;16.92;;;;;;;;;;7403462;19;19999;-78
2022/03/19 01:57:34;;;;;;;32.78;16.25;;;;;;;;;;7400718;19;20021;-78
2022/03/19 02:00:00;;;;;;;33.53;16.40;;;;;;;;;;7399357;19;20007;-78
2022/03/19 02:02:27;;;;;;;29.02;14.48;;;;;;;;;;7397895;19;20106;-78
2022/03/19 02:04:53;;;;;;;31.35;15.55;;;;;;;;;;7397001;19;20082;-78
2022/03/19 02:07:18;;;;;;;29.42;15.68;;;;;;;;;;7391109;19;20074;-78
2022/03/19 02:09:44;;;;;;;33.50;15.45;;;;;;;;;;7400150;19;20003;-78
2022/03/19 02:12:09;;;;;;;32.17;14.93;;;;;;;;;;7403782;19;20014;-78
2022/03/19 02:14:37;;;;;;;31.45;14.82;;;;;;;;;;7398158;19;20007;-78
2022/03/19 02:17:04;;;;;;;26.02;13.65;;;;;;;;;;7400390;19;20633;-78
2022/03/19 02:19:30;;;;;;;27.75;14.10;;;;;;;;;;7394758;19;20007;-78
2022/03/19 02:21:56;;;;;;;26.33;13.25;;;;;;;;;;7400266;19;20017;-78
2022/03/19 02:27:05;;;;;;;30.65;14.20;;;;;;;;;;7396712;19;20038;-78
2022/03/19 02:29:30;;;;;;;25.02;13.02;;;;;;;;;;7397802;19;20007;-79
2022/03/19 02:32:03;;;;;;;28.17;13.60;;;;;;;;;;7399789;19;20096;-78
2022/03/19 02:34:28;;;;;;;29.67;13.13;;;;;;;;;;7398189;19;19999;-78
2022/03/19 02:36:54;;;;;;;26.88;13.27;;;;;;;;;;7393326;19;20010;-78
2022/03/19 02:39:21;;;;;;;26.00;12.55;;;;;;;;;;7396939;19;19995;-79
2022/03/19 02:41:49;;;;;;;25.42;12.57;;;;;;;;;;7394523;19;20002;-78
2022/03/19 02:44:17;;;;;;;26.70;13.10;;;;;;;;;;7399954;19;20002;-78
2022/03/19 02:46:47;;;;;;;26.77;13.00;;;;;;;;;;7397401;19;20464;-78
2022/03/19 02:49:13;;;;;;;23.42;12.13;;;;;;;;;;7393815;19;20003;-78
2022/03/19 02:51:41;;;;;;;23.48;12.43;;;;;;;;;;7398391;19;20070;-78
2022/03/19 02:54:10;;;;;;;24.92;13.13;;;;;;;;;;7396815;19;20724;-78
2022/03/19 02:56:37;;;;;;;28.70;13.18;;;;;;;;;;7394440;19;20014;-78
2022/03/19 02:59:12;;;;;;;26.08;11.77;;;;;;;;;;7396204;19;20031;-78
2022/03/19 03:01:38;;;;;;;20.67;11.55;;;;;;;;;;7389681;19;20037;-78
2022/03/19 03:04:04;;;;;;;22.50;11.07;;;;;;;;;;7396523;19;20011;-78
2022/03/19 03:06:34;;;;;;;24.35;12.00;;;;;;;;;;7397317;19;20558;-78
2022/03/19 03:08:59;;;;;;;22.63;12.60;;;;;;;;;;7389368;19;20011;-78
2022/03/19 03:11:25;;;;;;;24.60;11.57;;;;;;;;;;7393288;19;20029;-78
2022/03/19 03:13:50;;;;;;;27.80;11.73;;;;;;;;;;7394990;19;20018;-78
2022/03/19 03:16:16;;;;;;;26.10;11.80;;;;;;;;;;7393972;19;20007;-78
2022/03/19 03:18:41;;;;;;;18.08;9.93;;;;;;;;;;7390313;19;20014;-78
2022/03/19 03:21:06;;;;;;;22.27;10.90;;;;;;;;;;7394581;19;20347;-78
2022/03/19 03:23:33;;;;;;;19.00;10.43;;;;;;;;;;7389390;19;20101;-77
2022/03/19 03:25:58;;;;;;;22.85;12.20;;;;;;;;;;7389284;19;20007;-77
2022/03/19 03:28:23;;;;;;;21.20;11.32;;;;;;;;;;7384520;19;20017;-77
2022/03/19 03:30:49;;;;;;;20.73;10.38;;;;;;;;;;7385788;19;20379;-77
2022/03/19 03:33:14;;;;;;;19.05;10.25;;;;;;;;;;7388502;19;20489;-77
2022/03/19 03:35:40;;;;;;;17.77;10.32;;;;;;;;;;7385312;19;20006;-77
2022/03/19 03:38:05;;;;;;;19.90;9.77;;;;;;;;;;7387958;19;20010;-78
2022/03/19 03:40:30;;;;;;;19.73;10.15;;;;;;;;;;7386751;19;20014;-77
2022/03/19 03:42:56;;;;;;;19.73;10.23;;;;;;;;;;7388304;19;20011;-78
2022/03/19 03:45:21;;;;;;;20.10;9.30;;;;;;;;;;7391128;19;20359;-78
2022/03/19 03:47:47;;;;;;;17.33;8.82;;;;;;;;;;7389214;19;20121;-77
2022/03/19 03:50:12;;;;;;;18.60;9.38;;;;;;;;;;7385262;19;20034;-77
2022/03/19 03:52:38;;;;;;;14.10;8.13;;;;;;;;;;7388503;19;20014;-76
2022/03/19 03:55:06;;;;;;;16.52;8.73;;;;;;;;;;7389071;19;20475;-77
2022/03/19 03:57:34;;;;;;;16.20;9.20;;;;;;;;;;7385546;19;20469;-76
2022/03/19 04:00:00;;;;;;;17.88;9.50;;;;;;;;;;7384002;19;20015;-76
2022/03/19 04:02:25;;;;;;;19.95;8.05;;;;;;;;;;7385460;19;20003;-76
2022/03/19 04:04:51;;;;;;;15.20;8.48;;;;;;;;;;7389350;19;20022;-77
2022/03/19 04:07:16;;;;;;;19.30;9.32;;;;;;;;;;7390523;19;20010;-77
2022/03/19 04:09:41;;;;;;;15.93;8.82;;;;;;;;;;7389476;19;20431;-77
2022/03/19 04:12:07;;;;;;;16.48;8.43;;;;;;;;;;7392519;19;20014;-77
2022/03/19 04:14:32;;;;;;;15.80;7.22;;;;;;;;;;7388610;19;20003;-77
2022/03/19 04:16:57;;;;;;;14.23;7.70;;;;;;;;;;7389835;19;20022;-77
2022/03/19 04:19:23;;;;;;;16.42;8.20;;;;;;;;;;7386712;19;20015;-77
2022/03/19 04:21:48;;;;;;;19.00;9.38;;;;;;;;;;7390761;19;20007;-77
2022/03/19 04:24:13;;;;;;;18.58;9.20;;;;;;;;;;7389411;19;20023;-78
2022/03/19 04:26:38;;;;;;;16.58;8.45;;;;;;;;;;7387586;19;20014;-77
2022/03/19 04:29:04;;;;;;;18.17;8.43;;;;;;;;;;7384429;19;20003;-77
2022/03/19 04:31:29;;;;;;;14.77;6.70;;;;;;;;;;7389127;19;20015;-77
2022/03/19 04:33:54;;;;;;;14.73;7.38;;;;;;;;;;7385884;19;20347;-77
2022/03/19 04:36:38;;;;;;;12.27;6.55;;;;;;;;;;7386359;19;20007;-77
2022/03/19 04:39:05;;;;;;;10.48;5.85;;;;;;;;;;7383853;19;20025;-77
2022/03/19 04:41:32;;;;;;;12.63;6.63;;;;;;;;;;7384186;19;20375;-77
2022/03/19 04:43:57;;;;;;;14.13;6.72;;;;;;;;;;7386979;19;20335;-77
2022/03/19 04:46:22;;;;;;;16.90;7.40;;;;;;;;;;7386153;19;20434;-77
2022/03/19 04:48:48;;;;;;;13.02;6.45;;;;;;;;;;7389428;19;20035;-77
2022/03/19 04:51:15;;;;;;;12.93;6.63;;;;;;;;;;7396955;19;20019;-77
2022/03/19 04:53:41;;;;;;;12.38;6.63;;;;;;;;;;7395842;19;20006;-77
2022/03/19 04:56:06;;;;;;;11.27;5.95;;;;;;;;;;7395054;19;20007;-76
2022/03/19 04:58:33;;;;;;;13.20;7.03;;;;;;;;;;7391846;19;20024;-77
2022/03/19 05:00:59;;;;;;;13.98;7.15;;;;;;;;;;7393317;19;20010;-77
2022/03/19 05:03:24;;;;;;;12.13;6.28;;;;;;;;;;7396777;19;20013;-77
2022/03/19 05:05:49;;;;;;;10.77;6.00;;;;;;;;;;7395074;19;20014;-77
2022/03/19 05:08:16;;;;;;;12.85;6.10;;;;;;;;;;7395691;19;20011;-77
2022/03/19 05:13:26;;;;;;;11.13;5.40;;;;;;;;;;7399586;19;20055;-78
2022/03/19 05:15:51;;;;;;;14.02;6.00;;;;;;;;;;7398022;19;20466;-77
2022/03/19 05:18:16;;;;;;;11.68;5.57;;;;;;;;;;7390914;19;20090;-77
2022/03/19 05:20:42;;;;;;;10.38;5.05;;;;;;;;;;7393989;19;19994;-77
2022/03/19 05:23:07;;;;;;;13.88;6.75;;;;;;;;;;7390185;19;20015;-76
2022/03/19 05:25:33;;;;;;;14.88;6.15;;;;;;;;;;7387847;19;20006;-77
2022/03/19 05:27:58;;;;;;;10.15;5.22;;;;;;;;;;7391105;19;20116;-76
2022/03/19 05:30:23;;;;;;;13.75;6.30;;;;;;;;;;7390621;19;20007;-76
2022/03/19 05:32:49;;;;;;;13.23;5.47;;;;;;;;;;7392173;19;20031;-76
2022/03/19 05:35:16;;;;;;;11.15;5.40;;;;;;;;;;7392578;19;20529;-76
2022/03/19 05:37:42;;;;;;;12.65;5.88;;;;;;;;;;7392304;19;20007;-76
2022/03/19 05:40:09;;;;;;;10.93;5.53;;;;;;;;;;7392529;19;20009;-76
2022/03/19 05:42:34;;;;;;;9.10;5.13;;;;;;;;;;7387972;19;20011;-76
2022/03/19 05:45:00;;;;;;;13.50;6.05;;;;;;;;;;7388844;19;20315;-77
2022/03/19 05:47:25;;;;;;;13.02;6.18;;;;;;;;;;7391727;19;20592;-77
2022/03/19 05:49:50;;;;;;;12.45;5.28;;;;;;;;;;7396002;19;20011;-77
2022/03/19 05:52:16;;;;;;;15.38;7.32;;;;;;;;;;7393448;19;20010;-77
2022/03/19 05:54:41;;;;;;;13.43;6.72;;;;;;;;;;7392786;19;20058;-77
2022/03/19 05:57:07;;;;;;;12.80;6.15;;;;;;;;;;7395413;19;20023;-77
2022/03/19 05:59:32;;;;;;;10.68;5.50;;;;;;;;;;7391388;19;20037;-77
2022/03/19 06:01:57;;;;;;;9.60;5.10;;;;;;;;;;7389676;19;20010;-78
2022/03/19 06:04:23;;;;;;;11.35;5.32;;;;;;;;;;7392761;19;19995;-78
2022/03/19 06:06:48;;;;;;;13.00;5.90;;;;;;;;;;7394907;19;20016;-77
2022/03/19 06:09:14;;;;;;;12.98;6.10;;;;;;;;;;7391303;19;20011;-78
2022/03/19 06:11:39;;;;;;;9.48;5.18;;;;;;;;;;7391027;19;20098;-77
2022/03/19 06:14:05;;;;;;;12.23;5.78;;;;;;;;;;7392897;19;20354;-78
2022/03/19 06:16:31;;;;;;;12.45;6.00;;;;;;;;;;7395679;19;20062;-78
2022/03/19 06:18:56;;;;;;;15.32;6.00;;;;;;;;;;7390502;19;20403;-78
2022/03/19 06:21:25;;;;;;;14.85;6.78;;;;;;;;;;7391620;19;20076;-77
2022/03/19 06:23:51;;;;;;;9.07;5.15;;;;;;;;;;7393272;19;20083;-77
2022/03/19 06:26:18;;;;;;;9.05;5.03;;;;;;;;;;7389365;19;20032;-78
2022/03/19 06:28:43;;;;;;;11.02;5.90;;;;;;;;;;7381267;19;20018;-77
2022/03/19 06:31:08;;;;;;;11.98;5.88;;;;;;;;;;7389868;19;20025;-77
2022/03/19 06:33:34;;;;;;;13.65;6.28;;;;;;;;;;7390022;19;20007;-77
2022/03/19 06:38:43;;;;;;;13.27;5.85;;;;;;;;;;7389323;19;20315;-77
2022/03/19 06:41:10;;;;;;;16.58;7.38;;;;;;;;;;7387638;19;19995;-77
2022/03/19 06:43:35;;;;;;;16.33;6.88;;;;;;;;;;7387342;19;20018;-75
2022/03/19 06:46:01;;;;;;;15.60;7.78;;;;;;;;;;7385650;19;20017;-76
2022/03/19 06:48:26;;;;;;;16.98;6.93;;;;;;;;;;7383271;19;20010;-73
2022/03/19 06:50:55;;;;;;;16.48;7.65;;;;;;;;;;7387707;19;20006;-76
2022/03/19 06:53:24;;;;;;;13.45;6.85;;;;;;;;;;7389164;19;20014;-77
2022/03/19 06:55:50;;;;;;;14.48;7.28;;;;;;;;;;7388459;19;20052;-76
2022/03/19 06:58:16;;;;;;;18.70;8.18;;;;;;;;;;7384073;19;20018;-77
2022/03/19 07:00:41;;;;;;;19.80;8.07;;;;;;;;;;7387839;19;20338;-76
2022/03/19 07:03:07;;;;;;;20.13;9.00;;;;;;;;;;7395017;19;20131;-77
2022/03/19 07:05:32;;;;;;;18.40;8.73;;;;;;;;;;7394271;19;20002;-76
2022/03/19 07:08:00;;;;;;;19.65;8.85;;;;;;;;;;7391935;19;20010;-77
2022/03/19 07:10:25;;;;;;;14.73;8.50;;;;;;;;;;7386183;19;20775;-75
2022/03/19 07:12:55;;;;;;;16.55;8.13;;;;;;;;;;7389469;19;20011;-76
2022/03/19 07:15:29;;;;;;;18.23;8.75;;;;;;;;;;7387129;19;20007;-77
2022/03/19 07:17:55;;;;;;;17.77;8.48;;;;;;;;;;7388423;19;20009;-76
2022/03/19 07:20:21;;;;;;;15.07;8.05;;;;;;;;;;7382701;19;20016;-77
2022/03/19 07:23:04;;;;;;;18.77;9.20;;;;;;;;;;7387388;19;20137;-77
2022/03/19 07:25:34;;;;;;;19.25;9.27;;;;;;;;;;7382064;19;20090;-77
2022/03/19 07:28:15;;;;;;;15.48;8.18;;;;;;;;;;7383438;19;19998;-76
2022/03/19 07:30:41;;;;;;;18.63;9.68;;;;;;;;;;7386102;19;20002;-76
2022/03/19 07:33:06;;;;;;;20.55;9.15;;;;;;;;;;7385518;19;20035;-76
2022/03/19 07:35:32;;;;;;;19.33;9.25;;;;;;;;;;7390411;19;20362;-76
2022/03/19 07:37:58;;;;;;;17.80;9.98;;;;;;;;;;7406785;19;20022;-77
2022/03/19 07:43:11;;;;;;;17.85;8.63;;;;;;;;;;7420970;19;20508;-77
2022/03/19 07:45:38;;;;;;;20.95;9.77;;;;;;;;;;7415026;19;20006;-77
2022/03/19 07:48:04;;;;;;;19.20;9.95;;;;;;;;;;7399469;19;20027;-77
2022/03/19 07:50:30;;;;;;;21.33;8.30;;;;;;;;;;7385122;19;19998;-77
2022/03/19 07:52:56;;;;;;;20.30;9.60;;;;;;;;;;7383970;19;20069;-77
2022/03/19 07:55:22;;;;;;;16.58;9.38;;;;;;;;;;7385432;19;20026;-77
2022/03/19 07:57:47;;;;;;;17.40;9.20;;;;;;;;;;7388085;19;20037;-77
2022/03/19 08:00:13;;;;;;;18.80;9.65;;;;;;;;;;7387949;19;20027;-78
2022/03/19 08:02:39;;;;;;;18.52;9.30;;;;;;;;;;7383071;19;20366;-77
2022/03/19 08:05:06;;;;;;;23.95;10.13;;;;;;;;;;7387618;19;20588;-77
2022/03/19 08:07:31;;;;;;;19.15;9.90;;;;;;;;;;7387161;19;20697;-77
2022/03/19 08:09:57;;;;;;;20.27;10.10;;;;;;;;;;7389376;19;20002;-78
2022/03/19 08:12:22;;;;;;;23.08;9.82;;;;;;;;;;7386036;19;20019;-77
2022/03/19 08:14:49;;;;;;;21.20;10.07;;;;;;;;;;7387544;19;20056;-78
2022/03/19 08:17:14;;;;;;;19.58;9.15;;;;;;;;;;7385286;19;20107;-77
2022/03/19 08:19:41;;;;;;;17.90;9.93;;;;;;;;;;7388769;19;20146;-77
2022/03/19 08:22:08;;;;;;;19.00;9.65;;;;;;;;;;7388681;19;20018;-77
2022/03/19 08:24:33;;;;;;;18.88;9.32;;;;;;;;;;7392837;19;19998;-78
2022/03/19 08:26:58;;;;;;;19.00;9.80;;;;;;;;;;7393759;19;20030;-77
2022/03/19 08:29:25;;;;;;;16.40;8.32;;;;;;;;;;7390120;19;20109;-76
2022/03/19 08:31:51;;;;;;;20.17;9.02;;;;;;;;;;7397554;19;20038;-77
2022/03/19 08:34:17;;;;;;;18.48;9.32;;;;;;;;;;7397253;19;20033;-77
2022/03/19 08:36:42;;;;;;;16.67;9.15;;;;;;;;;;7394387;19;20030;-78
2022/03/19 08:41:51;;;;;;;21.02;9.50;;;;;;;;;;7398264;19;20014;-78
2022/03/19 08:44:17;;;;;;;17.38;8.68;;;;;;;;;;7395230;19;19999;-77
2022/03/19 08:46:42;;;;;;;18.83;9.38;;;;;;;;;;7395051;19;19998;-77
2022/03/19 08:49:07;;;;;;;19.17;8.20;;;;;;;;;;7394329;19;20014;-77
2022/03/19 08:51:41;;;;;;;19.75;9.43;;;;;;;;;;7393056;19;20042;-77
2022/03/19 08:54:12;;;;;;;17.15;8.85;;;;;;;;;;7395440;19;20011;-76
2022/03/19 08:56:38;;;;;;;14.93;8.25;;;;;;;;;;7388539;19;20007;-75
2022/03/19 08:59:04;;;;;;;19.67;8.68;;;;;;;;;;7392832;19;20466;-76
2022/03/19 09:01:31;;;;;;;19.13;8.93;;;;;;;;;;7393181;19;20128;-79
2022/03/19 09:03:57;;;;;;;16.73;8.05;;;;;;;;;;7392504;19;20003;-76
2022/03/19 09:06:22;;;;;;;18.25;9.15;;;;;;;;;;7399173;19;20015;-77
2022/03/19 09:08:51;;;;;;;18.95;9.23;;;;;;;;;;7391788;19;20010;-77
2022/03/19 09:11:20;;;;;;;20.75;8.38;;;;;;;;;;7395511;19;20464;-77
2022/03/19 09:13:46;;;;;;;15.63;8.25;;;;;;;;;;7398823;19;20022;-76
2022/03/19 09:16:12;;;;;;;14.88;8.55;;;;;;;;;;7393482;19;20126;-77
2022/03/19 09:18:38;;;;;;;14.13;7.80;;;;;;;;;;7393124;19;20018;-77
2022/03/19 09:21:03;;;;;;;17.58;7.68;;;;;;;;;;7394960;19;20392;-77
2022/03/19 09:23:29;;;;;;;17.00;7.53;;;;;;;;;;7391984;19;20459;-76
2022/03/19 09:25:54;;;;;;;14.23;6.82;;;;;;;;;;7396772;19;20003;-77
2022/03/19 09:28:20;;;;;;;17.13;8.10;;;;;;;;;;7393568;19;20485;-77
2022/03/19 09:30:46;;;;;;;15.65;8.55;;;;;;;;;;7390567;19;20013;-77
2022/03/19 09:33:11;;;;;;;14.45;7.95;;;;;;;;;;7391089;19;20007;-77
2022/03/19 09:35:36;;;;;;;14.40;7.75;;;;;;;;;;7393521;19;20066;-77
2022/03/19 09:38:02;;;;;;;15.48;8.32;;;;;;;;;;7390487;19;20429;-77
2022/03/19 09:40:27;;;;;;;14.13;7.75;;;;;;;;;;7392165;19;20435;-77
2022/03/19 09:42:54;;;;;;;17.85;8.30;;;;;;;;;;7391080;19;20077;-76
2022/03/19 09:45:22;;;;;;;12.88;7.78;;;;;;;;;;7391430;19;20014;-77
2022/03/19 09:47:49;;;;;;;16.13;8.45;;;;;;;;;;7391566;19;20319;-79
2022/03/19 09:50:15;;;;;;;14.73;8.40;;;;;;;;;;7394124;19;20010;-78
2022/03/19 09:52:42;;;;;;;15.80;8.73;;;;;;;;;;7392138;19;20339;-78
2022/03/19 09:55:12;;;;;;;17.23;8.38;;;;;;;;;;7390333;19;20018;-76
2022/03/19 09:57:37;;;;;;;13.93;8.10;;;;;;;;;;7388432;19;20010;-75
2022/03/19 10:00:03;;;;;;;16.30;9.50;;;;;;;;;;7383699;19;20006;-76
2022/03/19 10:02:28;;;;;;;18.92;8.68;;;;;;;;;;7384584;19;19998;-76
2022/03/19 10:04:57;;;;;;;15.48;8.45;;;;;;;;;;7383966;19;20873;-77
2022/03/19 10:10:11;;;;;;;20.33;8.40;;;;;;;;;;7386815;19;20027;-76
2022/03/19 10:12:39;;;;;;;16.60;8.75;;;;;;;;;;7386580;19;20490;-77
2022/03/19 10:15:09;;;;;;;15.27;8.60;;;;;;;;;;7386695;19;20512;-75
2022/03/19 10:17:36;;;;;;;15.43;8.25;;;;;;;;;;7385690;19;20388;-76
2022/03/19 10:20:10;;;;;;;19.10;8.77;;;;;;;;;;7385729;19;19994;-76
2022/03/19 10:22:42;;;;;;;17.25;9.00;;;;;;;;;;7386115;19;20010;-76
2022/03/19 10:25:10;;;;;;;19.63;8.13;;;;;;;;;;7408734;19;20037;-79
2022/03/19 10:27:38;;;;;;;21.77;9.05;;;;;;;;;;7416818;19;20019;-77
2022/03/19 10:30:20;;;;;;;14.13;8.43;;;;;;;;;;7410953;19;20011;-78
2022/03/19 10:32:53;;;;;;;14.48;8.38;;;;;;;;;;7409456;19;20006;-77
2022/03/19 10:35:28;;;;;;;18.38;8.75;;;;;;;;;;7416365;19;20031;-78
2022/03/19 10:37:55;;;;;;;16.88;8.98;;;;;;;;;;7415152;19;20019;-79
2022/03/19 10:40:21;;;;;;;15.10;8.27;;;;;;;;;;7417044;19;20003;-77
2022/03/19 10:42:47;;;;;;;14.85;8.70;;;;;;;;;;7415877;19;20007;-78
2022/03/19 10:45:20;;;;;;;15.65;9.25;;;;;;;;;;7415479;19;19998;-77
2022/03/19 10:47:47;;;;;;;17.27;8.52;;;;;;;;;;7419343;19;20017;-78
2022/03/19 10:50:21;;;;;;;19.40;8.77;;;;;;;;;;7414723;19;20013;-77
2022/03/19 10:52:49;;;;;;;20.42;9.63;;;;;;;;;;7416831;19;20011;-77
2022/03/19 10:55:15;;;;;;;16.27;9.32;;;;;;;;;;7413440;19;20003;-78
2022/03/19 10:57:41;;;;;;;20.48;9.85;;;;;;;;;;7414275;19;20003;-78
2022/03/19 11:00:07;;;;;;;18.95;9.05;;;;;;;;;;7413876;19;20014;-78
2022/03/19 11:02:33;;;;;;;19.25;9.45;;;;;;;;;;7415015;19;20007;-78
2022/03/19 11:05:00;;;;;;;16.95;9.40;;;;;;;;;;7416755;19;20011;-78
2022/03/19 11:07:30;;;;;;;15.90;8.77;;;;;;;;;;7415830;19;19994;-78
2022/03/19 11:09:57;;;;;;;19.77;9.45;;;;;;;;;;7413553;19;20040;-78
2022/03/19 11:12:27;;;;;;;15.27;8.88;;;;;;;;;;7414528;19;20703;-79
2022/03/19 11:14:56;;;;;;;18.17;8.65;;;;;;;;;;7391811;19;20018;-76
2022/03/19 11:17:27;;;;;;;16.38;9.48;;;;;;;;;;7387837;19;20059;-77
2022/03/19 11:19:55;;;;;;;16.73;9.60;;;;;;;;;;7311852;19;20024;-77
2022/03/19 11:22:21;;;;;;;20.98;8.98;;;;;;;;;;7384458;19;20030;-77
2022/03/19 11:24:55;;;;;;;18.30;9.48;;;;;;;;;;7383775;19;20090;-76
2022/03/19 11:27:22;;;;;;;14.93;8.57;;;;;;;;;;7384451;19;20014;-77
2022/03/19 11:29:47;;;;;;;16.98;9.65;;;;;;;;;;7385346;19;20331;-77
2022/03/19 11:32:23;;;;;;;16.80;8.45;;;;;;;;;;7382331;19;20006;-78
2022/03/19 11:34:50;;;;;;;17.10;8.93;;;;;;;;;;7385033;19;20014;-77
2022/03/19 11:37:16;;;;;;;14.57;8.50;;;;;;;;;;7382628;19;20050;-77
2022/03/19 11:40:04;;;;;;;14.55;8.45;;;;;;;;;;7385223;19;20011;-77
2022/03/19 11:42:33;;;;;;;14.55;8.43;;;;;;;;;;7383405;19;20112;-78
2022/03/19 11:45:10;;;;;;;19.60;8.77;;;;;;;;;;7382177;19;20006;-77
2022/03/19 11:47:35;;;;;;;14.20;8.00;;;;;;;;;;7383721;19;20449;-77
2022/03/19 11:50:03;;;;;;;16.42;8.23;;;;;;;;;;7382180;19;20006;-77
2022/03/19 11:52:29;;;;;;;14.20;8.77;;;;;;;;;;7381450;19;20089;-77
2022/03/19 11:55:00;;;;;;;17.35;8.65;;;;;;;;;;7378785;19;20018;-77
2022/03/19 11:57:26;;;;;;;13.60;8.35;;;;;;;;;;7384380;19;20015;-77
2022/03/19 11:59:58;;;;;;;16.92;9.13;;;;;;;;;;7391010;19;20006;-77
2022/03/19 12:02:24;;;;;;;15.65;8.32;;;;;;;;;;7389752;19;20058;-77
2022/03/19 12:04:55;;;;;;;13.27;8.00;;;;;;;;;;7396952;19;19999;-78
2022/03/19 12:07:41;;;;;;;13.70;8.80;;;;;;;;;;7396268;19;20031;-78
2022/03/19 12:10:18;;;;;;;;;;;;;;;;;;7391671;19;20089;-77
2022/03/19 12:12:46;;;;;;;15.60;8.20;;;;;;;;;;7393526;19;19951;-78
2022/03/19 12:15:29;;;;;;;15.15;8.70;;;;;;;;;;7383329;19;20087;-78
2022/03/19 12:18:21;;;;;;;15.75;8.40;;;;;;;;;;7388982;19;20014;-78
2022/03/19 12:20:46;;;;;;;18.40;8.40;;;;;;;;;;7388213;19;20003;-78
2022/03/19 12:23:12;;;;;;;13.95;8.10;;;;;;;;;;7389968;19;20019;-77
2022/03/19 12:25:43;;;;;;;19.30;9.35;;;;;;;;;;7389490;19;20014;-78
2022/03/19 12:28:14;;;;;;;15.50;8.55;;;;;;;;;;7388828;19;20011;-78
2022/03/19 12:30:40;;;;;;;16.25;8.50;;;;;;;;;;7387358;19;20106;-78
2022/03/19 12:33:05;;;;;;;21.98;8.77;;;;;;;;;;7389205;19;20041;-78
2022/03/19 12:35:39;;;;;;;17.35;8.75;;;;;;;;;;7381242;19;20011;-78
2022/03/19 12:38:05;;;;;;;14.10;7.75;;;;;;;;;;7386931;19;20055;-79
2022/03/19 12:41:23;;;;;;;14.80;8.68;;;;;;;;;;7392593;19;20025;-77
2022/03/19 12:43:18;;;;;;;14.48;8.38;;;;;;;;;;7383293;19;20006;-78
2022/03/19 12:45:47;;;;;;;16.55;8.90;;;;;;;;;;7389092;19;20095;-77
2022/03/19 12:48:20;;;;;;;14.50;7.93;;;;;;;;;;7390577;19;20023;-78
2022/03/19 12:50:56;;;;;;;15.82;8.52;;;;;;;;;;7392493;19;20016;-78
2022/03/19 12:53:32;;;;;;;21.23;8.45;;;;;;;;;;7384811;19;20086;-78
2022/03/19 12:56:19;;;;;;;15.80;7.57;;;;;;;;;;7386406;19;20034;-77
2022/03/19 12:58:47;;;;;;;11.90;7.72;;;;;;;;;;7380621;19;21923;-78
2022/03/19 13:01:15;;;;;;;13.40;7.65;;;;;;;;;;7385530;19;20015;-77
2022/03/19 13:03:41;;;;;;;11.77;6.85;;;;;;;;;;7386833;19;20014;-77
2022/03/19 13:06:10;;;;;;;13.93;7.00;;;;;;;;;;7381126;19;20110;-77
2022/03/19 13:08:49;;;;;;;12.70;6.88;;;;;;;;;;7377281;19;20010;-78
2022/03/19 13:11:16;;;;;;;14.88;7.60;;;;;;;;;;7381013;19;20070;-77
2022/03/19 13:13:43;;;;;;;13.13;7.35;;;;;;;;;;7390784;19;20095;-78
2022/03/19 13:16:09;;;;;;;11.57;6.68;;;;;;;;;;7389317;19;20318;-77
2022/03/19 13:18:36;;;;;;;11.95;7.30;;;;;;;;;;7385900;19;20481;-78
2022/03/19 13:21:02;;;;;;;14.75;7.68;;;;;;;;;;7389737;19;20082;-77
2022/03/19 13:23:29;;;;;;;11.10;7.28;;;;;;;;;;7389625;19;20014;-78
2022/03/19 13:25:56;;;;;;;10.98;6.68;;;;;;;;;;7389676;19;20006;-78
2022/03/19 13:28:21;;;;;;;19.60;8.25;;;;;;;;;;7386086;19;20073;-78
2022/03/19 13:30:49;;;;;;;14.40;7.20;;;;;;;;;;7388330;19;20443;-78
2022/03/19 13:33:17;;;;;;;14.07;6.90;;;;;;;;;;7388118;19;20006;-79
2022/03/19 13:35:50;;;;;;;11.00;6.75;;;;;;;;;;7390226;19;20058;-78
2022/03/19 13:38:18;;;;;;;9.30;6.65;;;;;;;;;;7386097;19;20010;-78
2022/03/19 13:40:45;;;;;;;13.52;8.50;;;;;;;;;;7387942;19;20007;-77
2022/03/19 13:43:11;;;;;;;13.18;7.45;;;;;;;;;;7385029;19;20022;-78
2022/03/19 13:45:36;;;;;;;15.40;6.93;;;;;;;;;;7388986;19;20381;-77
2022/03/19 13:48:06;;;;;;;10.70;6.43;;;;;;;;;;7385573;19;20021;-78
2022/03/19 13:50:38;;;;;;;11.93;6.45;;;;;;;;;;7387911;19;20009;-77
2022/03/19 13:53:04;;;;;;;12.95;7.22;;;;;;;;;;7385733;19;20363;-78
2022/03/19 13:55:29;;;;;;;12.55;7.00;;;;;;;;;;7388110;19;20026;-78
2022/03/19 13:58:23;;;;;;;11.05;6.78;;;;;;;;;;7387862;19;20086;-79
2022/03/19 14:00:48;;;;;;;13.68;7.15;;;;;;;;;;7382884;19;20062;-78
2022/03/19 14:03:16;;;;;;;11.70;6.65;;;;;;;;;;7386861;19;20006;-78
2022/03/19 14:05:51;;;;;;;12.63;7.43;;;;;;;;;;7388376;19;20449;-78
2022/03/19 14:08:19;;;;;;;16.80;7.82;;;;;;;;;;7394809;19;20018;-77
2022/03/19 14:10:54;;;;;;;13.55;7.03;;;;;;;;;;7395188;19;20002;-78
2022/03/19 14:13:33;;;;;;;;;;;;;;;;;;7397052;19;20006;-77
2022/03/19 14:16:08;;;;;;;10.48;6.45;;;;;;;;;;7396194;19;19948;-78
2022/03/19 14:18:33;;;;;;;13.10;6.60;;;;;;;;;;7393983;19;19998;-79
2022/03/19 14:21:03;;;;;;;10.07;6.15;;;;;;;;;;7395886;19;19995;-78
2022/03/19 14:23:30;;;;;;;13.00;6.90;;;;;;;;;;7399737;19;20067;-77
2022/03/19 14:25:59;;;;;;;10.55;7.03;;;;;;;;;;7396332;19;20019;-78
2022/03/19 14:28:25;;;;;;;11.15;6.20;;;;;;;;;;7391606;19;20007;-78
2022/03/19 14:30:52;;;;;;;11.98;6.82;;;;;;;;;;7395097;19;20038;-79
2022/03/19 14:33:17;;;;;;;12.85;6.32;;;;;;;;;;7396310;19;20679;-77
2022/03/19 14:36:03;;;;;;;11.27;6.75;;;;;;;;;;7399374;19;20006;-77
2022/03/19 14:38:29;;;;;;;;;;;;;;;;;;7396701;19;20484;-76
2022/03/19 14:40:57;;;;;;;9.20;6.15;;;;;;;;;;7400372;19;19925;-76
2022/03/19 14:43:23;;;;;;;9.30;5.80;;;;;;;;;;7402700;19;20017;-79
2022/03/19 14:45:53;;;;;;;11.55;6.20;;;;;;;;;;7404244;19;20044;-77